Time;durP1;ratioP1;P1;durP2;ratioP2;P2;SDS_P1;SDS_P2;PMS_P1;PMS_P2;Temp;Humidity;BMP_temperature;BMP_pressure;BME280_temperature;BME280_humidity;BME280_pressure;Samples;Min_cycle;Max_cycle;Signal;HPM_P1;HPM_P2
2022/10/14 00:00:41;;;;;;;38.95;18.25;;;;;;;10.56;100.00;98544.13;2621485;28;20045;-83
2022/10/14 00:02:15;;;;;;;37.78;18.35;;;;;;;10.30;100.00;98548.22;2623123;28;20048;-79
2022/10/14 00:03:30;;;;;;;39.85;18.38;;;;;;;10.21;100.00;98544.09;2623695;28;20044;-79
2022/10/14 00:04:46;;;;;;;42.40;18.80;;;;;;;10.03;100.00;98546.22;2623787;28;20079;-81
2022/10/14 00:06:11;;;;;;;42.55;19.42;;;;;;;9.93;100.00;98536.03;2624932;28;20067;-80
2022/10/14 00:07:27;;;;;;;38.33;18.88;;;;;;;9.94;100.00;98541.25;2622532;28;20048;-79
2022/10/14 00:08:43;;;;;;;41.85;19.38;;;;;;;9.96;100.00;98535.94;2620528;28;20498;-80
2022/10/14 00:09:59;;;;;;;35.72;17.70;;;;;;;9.86;100.00;98535.31;2620613;28;20139;-81
2022/10/14 00:11:23;;;;;;;40.65;19.67;;;;;;;9.91;100.00;98538.69;2623687;28;20044;-79
2022/10/14 00:12:38;;;;;;;36.60;19.77;;;;;;;10.15;100.00;98533.75;2623400;28;20076;-80
2022/10/14 00:13:56;;;;;;;41.17;19.33;;;;;;;10.18;100.00;98526.69;2620736;28;20105;-81
2022/10/14 00:15:12;;;;;;;35.92;17.92;;;;;;;10.12;100.00;98526.81;2624078;28;20047;-82
2022/10/14 00:16:33;;;;;;;36.08;18.58;;;;;;;10.32;100.00;98526.31;2623220;28;20052;-80
2022/10/14 00:17:49;;;;;;;30.30;17.77;;;;;;;10.34;100.00;98530.66;2625696;28;20041;-80
2022/10/14 00:19:05;;;;;;;29.88;16.50;;;;;;;10.33;100.00;98521.97;2627076;28;20340;-80
2022/10/14 00:20:21;;;;;;;29.83;16.15;;;;;;;10.21;100.00;98514.44;2623763;28;20144;-80
2022/10/14 00:21:40;;;;;;;30.30;16.13;;;;;;;9.75;100.00;98528.56;2622507;28;20044;-80
2022/10/14 00:22:55;;;;;;;30.50;16.27;;;;;;;9.69;100.00;98522.63;2624387;28;20059;-80
2022/10/14 00:24:13;;;;;;;33.45;16.58;;;;;;;10.04;100.00;98518.34;2624719;28;20503;-81
2022/10/14 00:25:28;;;;;;;32.58;16.48;;;;;;;10.16;100.00;98519.78;2623502;28;20048;-79
2022/10/14 00:26:45;;;;;;;28.27;15.65;;;;;;;10.26;100.00;98517.78;2626345;28;20064;-79
2022/10/14 00:28:02;;;;;;;28.90;15.35;;;;;;;10.31;100.00;98516.75;2624788;28;20474;-83
2022/10/14 00:29:18;;;;;;;31.60;15.18;;;;;;;10.31;100.00;98522.00;2621736;28;20060;-80
2022/10/14 00:30:33;;;;;;;27.58;16.10;;;;;;;10.04;100.00;98516.56;2624386;28;20051;-79
2022/10/14 00:31:50;;;;;;;31.45;16.80;;;;;;;10.19;100.00;98517.06;2624367;28;20040;-80
2022/10/14 00:33:06;;;;;;;30.58;17.00;;;;;;;10.08;100.00;98516.50;2624056;28;20052;-79
2022/10/14 00:34:21;;;;;;;30.17;17.98;;;;;;;10.16;100.00;98517.16;2621460;28;20659;-80
2022/10/14 00:35:37;;;;;;;34.03;17.60;;;;;;;9.92;100.00;98514.28;2624539;28;20387;-80
2022/10/14 00:36:53;;;;;;;32.35;17.05;;;;;;;10.03;100.00;98517.47;2622255;28;20102;-80
2022/10/14 00:38:08;;;;;;;31.55;16.20;;;;;;;10.15;100.00;98513.69;2623636;28;20097;-79
2022/10/14 00:39:24;;;;;;;30.90;16.90;;;;;;;10.23;100.00;98515.25;2624718;28;20040;-79
2022/10/14 00:40:39;;;;;;;32.03;17.52;;;;;;;10.29;100.00;98520.34;2623774;28;20080;-79
2022/10/14 00:41:55;;;;;;;28.38;16.05;;;;;;;10.31;100.00;98519.38;2625853;28;20082;-79
2022/10/14 00:43:13;;;;;;;31.25;17.95;;;;;;;10.38;100.00;98514.84;2624627;28;20052;-80
2022/10/14 00:44:28;;;;;;;33.45;17.65;;;;;;;10.41;100.00;98513.94;2625939;28;20405;-79
2022/10/14 00:45:44;;;;;;;31.92;16.48;;;;;;;10.42;100.00;98519.16;2625583;28;20059;-81
2022/10/14 00:46:59;;;;;;;28.42;16.15;;;;;;;10.38;100.00;98522.69;2623180;28;20056;-80
2022/10/14 00:48:17;;;;;;;25.60;14.95;;;;;;;10.27;100.00;98515.13;2625584;28;20517;-80
2022/10/14 00:49:37;;;;;;;27.70;16.00;;;;;;;10.25;100.00;98518.69;2622891;28;20103;-79
2022/10/14 00:50:55;;;;;;;28.90;16.05;;;;;;;10.30;100.00;98519.44;2626138;28;20053;-82
2022/10/14 00:52:15;;;;;;;27.45;16.23;;;;;;;10.37;100.00;98518.38;2624855;28;20411;-79
2022/10/14 00:53:31;;;;;;;33.92;17.60;;;;;;;10.33;100.00;98521.97;2623790;28;20093;-80
2022/10/14 00:54:54;;;;;;;28.77;15.77;;;;;;;10.39;100.00;98515.72;2623400;28;20041;-79
2022/10/14 00:56:12;;;;;;;33.90;15.63;;;;;;;10.31;100.00;98515.91;2623492;28;20052;-79
2022/10/14 00:57:28;;;;;;;29.45;15.82;;;;;;;10.18;100.00;98510.13;2626228;28;20063;-80
2022/10/14 00:58:44;;;;;;;30.55;16.27;;;;;;;10.16;100.00;98517.16;2624777;28;20063;-80
2022/10/14 01:00:13;;;;;;;31.55;16.20;;;;;;;10.06;100.00;98515.66;2623531;28;20045;-80
2022/10/14 01:01:29;;;;;;;33.45;15.98;;;;;;;10.07;100.00;98512.19;2623615;28;20059;-79
2022/10/14 01:02:46;;;;;;;29.75;16.88;;;;;;;9.94;100.00;98519.44;2621764;28;20044;-80
2022/10/14 01:04:02;;;;;;;27.92;16.08;;;;;;;10.13;100.00;98507.66;2626419;28;20067;-80
2022/10/14 01:05:19;;;;;;;30.30;15.65;;;;;;;10.22;100.00;98513.53;2622015;28;20060;-79
2022/10/14 01:06:46;;;;;;;32.38;16.23;;;;;;;10.26;100.00;98513.41;2625001;28;20095;-79
2022/10/14 01:08:13;;;;;;;29.83;15.82;;;;;;;10.32;100.00;98504.56;2624379;28;20063;-79
2022/10/14 01:09:50;;;;;;;32.40;15.75;;;;;;;10.22;100.00;98505.69;2624600;28;20439;-79
2022/10/14 01:11:14;;;;;;;33.00;17.20;;;;;;;10.18;100.00;98508.38;2625657;28;20438;-79
2022/10/14 01:12:54;;;;;;;33.13;16.05;;;;;;;10.30;100.00;98507.19;2627809;28;20124;-80
2022/10/14 01:14:42;;;;;;;35.47;17.05;;;;;;;10.13;100.00;98507.66;2625772;28;20586;-80
2022/10/14 01:16:33;;;;;;;33.72;16.80;;;;;;;10.16;100.00;98499.72;2623696;28;20143;-80
2022/10/14 01:18:16;;;;;;;38.95;16.63;;;;;;;10.31;100.00;98501.06;2617828;28;20056;-79
2022/10/14 01:20:14;;;;;;;31.00;15.45;;;;;;;10.17;100.00;98497.94;2610985;28;20053;-79
2022/10/14 01:21:48;;;;;;;28.05;14.60;;;;;;;10.15;100.00;98498.00;2588110;28;20527;-79
2022/10/14 01:23:16;;;;;;;32.40;15.98;;;;;;;10.34;100.00;98504.50;2622917;28;20101;-79
2022/10/14 01:24:54;;;;;;;33.78;15.95;;;;;;;10.22;100.00;98501.31;2622004;28;20088;-82
2022/10/14 01:26:34;;;;;;;32.80;14.95;;;;;;;10.37;100.00;98505.28;2621982;28;20052;-79
2022/10/14 01:27:55;;;;;;;51.45;15.75;;;;;;;10.37;100.00;98501.81;2622340;28;20052;-79
2022/10/14 01:29:28;;;;;;;94.50;19.77;;;;;;;10.26;100.00;98505.56;2622702;28;20148;-80
2022/10/14 01:30:47;;;;;;;41.45;16.63;;;;;;;10.30;100.00;98503.75;2624366;28;20048;-79
2022/10/14 01:32:12;;;;;;;107.60;19.05;;;;;;;10.30;100.00;98506.34;2623225;28;20052;-80
2022/10/14 01:33:34;;;;;;;59.03;17.63;;;;;;;10.29;100.00;98509.88;2623254;28;20472;-79
2022/10/14 01:35:00;;;;;;;61.63;16.15;;;;;;;10.17;100.00;98511.91;2625678;28;20401;-79
2022/10/14 01:36:23;;;;;;;35.92;15.25;;;;;;;10.19;100.00;98514.47;2622631;28;20542;-80
2022/10/14 01:37:47;;;;;;;29.95;16.00;;;;;;;10.19;100.00;98509.22;2622909;28;20067;-80
2022/10/14 01:39:14;;;;;;;28.40;14.77;;;;;;;10.30;100.00;98509.81;2624701;28;20049;-80
2022/10/14 01:40:40;;;;;;;26.95;14.75;;;;;;;10.29;100.00;98508.09;2622256;28;20567;-83
2022/10/14 01:42:02;;;;;;;32.72;16.40;;;;;;;10.24;100.00;98512.59;2627103;28;20055;-80
2022/10/14 01:43:21;;;;;;;32.90;15.60;;;;;;;10.36;100.00;98502.72;2623605;28;20114;-80
2022/10/14 01:44:42;;;;;;;30.52;15.88;;;;;;;10.36;100.00;98505.34;2622485;28;20055;-83
2022/10/14 01:46:01;;;;;;;47.38;17.27;;;;;;;10.36;100.00;98505.34;2622622;28;20090;-79
2022/10/14 01:47:20;;;;;;;49.75;17.58;;;;;;;10.40;100.00;98504.34;2624176;28;20082;-80
2022/10/14 01:48:40;;;;;;;35.42;17.35;;;;;;;10.31;100.00;98498.44;2621837;28;20048;-80
2022/10/14 01:50:04;;;;;;;36.58;16.25;;;;;;;10.06;100.00;98502.56;2625416;28;20135;-79
2022/10/14 01:51:34;;;;;;;68.32;18.83;;;;;;;10.26;100.00;98504.69;2625160;28;20048;-79
2022/10/14 01:53:14;;;;;;;50.92;18.52;;;;;;;10.21;100.00;98502.22;2626528;28;20048;-80
2022/10/14 01:54:43;;;;;;;69.07;18.45;;;;;;;10.05;100.00;98504.34;2615171;28;20515;-79
2022/10/14 01:56:01;;;;;;;65.22;19.13;;;;;;;10.09;100.00;98499.91;2609782;28;20055;-79
2022/10/14 01:57:21;;;;;;;48.13;17.95;;;;;;;9.95;100.00;98498.50;2621133;28;20092;-79
2022/10/14 01:58:38;;;;;;;50.33;18.55;;;;;;;10.06;100.00;98497.34;2621992;28;20485;-80
2022/10/14 01:59:55;;;;;;;37.00;17.75;;;;;;;10.13;100.00;98496.31;2624761;28;20052;-79
2022/10/14 02:01:10;;;;;;;42.15;18.08;;;;;;;10.21;100.00;98497.00;2622083;28;20953;-80
2022/10/14 02:02:26;;;;;;;40.17;17.45;;;;;;;10.17;100.00;98490.09;2623586;28;20055;-79
2022/10/14 02:03:44;;;;;;;36.08;17.30;;;;;;;10.21;100.00;98490.88;2620698;28;20364;-79
2022/10/14 02:05:04;;;;;;;35.60;17.80;;;;;;;10.27;100.00;98490.75;2624966;28;20052;-81
2022/10/14 02:06:29;;;;;;;42.92;17.98;;;;;;;10.26;100.00;98491.59;2624657;28;20048;-79
2022/10/14 02:07:49;;;;;;;38.33;16.60;;;;;;;10.27;100.00;98493.34;2626402;28;20052;-80
2022/10/14 02:09:22;;;;;;;33.35;16.95;;;;;;;10.21;100.00;98483.03;2623522;28;20097;-79
2022/10/14 02:10:45;;;;;;;36.13;17.10;;;;;;;10.30;100.00;98488.88;2624912;28;20589;-80
2022/10/14 02:12:10;;;;;;;37.22;17.23;;;;;;;10.27;100.00;98483.72;2621319;28;20444;-79
2022/10/14 02:14:08;;;;;;;38.10;16.40;;;;;;;10.34;100.00;98491.41;2621876;28;20052;-79
2022/10/14 02:15:40;;;;;;;32.00;17.10;;;;;;;10.29;100.00;98486.31;2622470;28;20048;-79
2022/10/14 02:17:02;;;;;;;38.85;16.52;;;;;;;10.24;100.00;98489.06;2622249;28;20052;-79
2022/10/14 02:18:25;;;;;;;32.05;16.00;;;;;;;10.25;100.00;98485.53;2624830;28;20050;-78
2022/10/14 02:19:51;;;;;;;31.30;15.77;;;;;;;10.15;100.00;98491.91;2624838;28;20085;-79
2022/10/14 02:21:07;;;;;;;30.42;16.40;;;;;;;10.13;100.00;98489.34;2620921;28;20476;-80
2022/10/14 02:22:36;;;;;;;32.35;15.88;;;;;;;10.20;100.00;98484.81;2620482;28;20338;-80
2022/10/14 02:24:00;;;;;;;32.28;16.60;;;;;;;10.26;100.00;98483.75;2625331;28;20083;-79
2022/10/14 02:25:22;;;;;;;35.00;16.33;;;;;;;10.31;100.00;98485.34;2621802;28;20493;-80
2022/10/14 02:26:39;;;;;;;39.20;17.25;;;;;;;10.02;100.00;98480.91;2624522;28;20415;-80
2022/10/14 02:27:58;;;;;;;38.88;16.55;;;;;;;10.09;100.00;98484.22;2625115;28;20102;-82
2022/10/14 02:29:14;;;;;;;39.08;16.38;;;;;;;10.13;100.00;98485.84;2623731;28;20486;-80
2022/10/14 02:30:33;;;;;;;42.45;16.48;;;;;;;10.19;100.00;98485.69;2626945;28;20127;-79
2022/10/14 02:31:50;;;;;;;40.55;16.75;;;;;;;10.20;100.00;98486.56;2610699;28;20045;-79
2022/10/14 02:33:07;;;;;;;46.70;16.98;;;;;;;10.14;100.00;98490.19;2615427;28;20067;-81
2022/10/14 02:34:24;;;;;;;58.45;17.10;;;;;;;10.25;100.00;98485.53;2621497;28;20059;-79
2022/10/14 02:35:41;;;;;;;38.80;15.82;;;;;;;10.43;100.00;98479.00;2623673;28;20062;-79
2022/10/14 02:36:58;;;;;;;52.20;17.23;;;;;;;10.41;100.00;98487.78;2621228;28;20048;-80
2022/10/14 02:38:16;;;;;;;49.55;16.30;;;;;;;10.30;100.00;98488.03;2624725;28;20410;-79
2022/10/14 02:39:38;;;;;;;46.92;16.90;;;;;;;10.40;100.00;98486.88;2626080;28;20045;-80
2022/10/14 02:40:54;;;;;;;51.35;17.23;;;;;;;10.37;100.00;98480.88;2623413;28;20052;-79
2022/10/14 02:42:10;;;;;;;79.63;17.55;;;;;;;10.54;100.00;98483.94;2624685;28;20052;-79
2022/10/14 02:43:26;;;;;;;68.40;18.33;;;;;;;10.50;100.00;98478.81;2621155;28;20563;-79
2022/10/14 02:44:56;;;;;;;68.50;17.02;;;;;;;10.54;100.00;98481.31;2621796;28;20392;-79
2022/10/14 02:46:12;;;;;;;117.38;18.55;;;;;;;10.54;100.00;98483.06;2624573;28;20048;-79
2022/10/14 02:47:27;;;;;;;63.58;16.83;;;;;;;10.50;100.00;98474.44;2622044;28;20458;-80
2022/10/14 02:48:43;;;;;;;95.70;17.83;;;;;;;10.51;100.00;98486.63;2621934;28;20052;-79
2022/10/14 02:49:59;;;;;;;31.63;15.07;;;;;;;10.45;100.00;98476.31;2623264;28;20094;-79
2022/10/14 02:51:15;;;;;;;68.00;15.90;;;;;;;10.38;100.00;98480.81;2624335;28;20044;-79
2022/10/14 02:52:31;;;;;;;32.90;15.80;;;;;;;10.27;100.00;98486.34;2624076;28;20426;-80
2022/10/14 02:53:47;;;;;;;35.42;16.55;;;;;;;10.43;100.00;98472.88;2623754;28;20053;-83
2022/10/14 02:55:02;;;;;;;34.00;14.55;;;;;;;10.34;100.00;98478.31;2619842;28;20049;-79
2022/10/14 02:56:18;;;;;;;37.28;16.92;;;;;;;10.44;100.00;98471.97;2620232;28;20506;-79
2022/10/14 02:57:34;;;;;;;32.40;15.55;;;;;;;10.45;100.00;98466.72;2622156;28;20044;-79
2022/10/14 02:58:50;;;;;;;31.52;15.93;;;;;;;10.46;100.00;98475.41;2621485;28;20044;-79
2022/10/14 03:00:06;;;;;;;30.08;15.88;;;;;;;10.28;100.00;98467.13;2620750;28;20567;-80
2022/10/14 03:01:21;;;;;;;30.45;15.20;;;;;;;10.41;100.00;98469.47;2624527;28;20113;-80
2022/10/14 03:02:37;;;;;;;29.77;15.35;;;;;;;10.42;100.00;98466.81;2622221;28;20380;-79
2022/10/14 03:03:53;;;;;;;29.75;15.60;;;;;;;10.36;100.00;98466.91;2622090;28;20056;-79
2022/10/14 03:05:08;;;;;;;35.60;17.23;;;;;;;10.38;100.00;98465.13;2620515;28;20048;-79
2022/10/14 03:06:24;;;;;;;34.42;16.98;;;;;;;10.13;100.00;98473.63;2620645;28;20048;-80
2022/10/14 03:07:39;;;;;;;40.75;16.77;;;;;;;10.07;100.00;98472.94;2611390;28;20048;-79
2022/10/14 03:08:55;;;;;;;33.92;17.38;;;;;;;10.13;100.00;98472.75;2615140;28;20596;-79
2022/10/14 03:10:11;;;;;;;36.70;17.80;;;;;;;10.11;100.00;98474.56;2622316;28;20117;-81
2022/10/14 03:11:26;;;;;;;34.70;17.58;;;;;;;10.20;100.00;98473.47;2620776;28;20043;-81
2022/10/14 03:12:42;;;;;;;34.53;16.70;;;;;;;10.25;100.00;98476.81;2622316;28;20595;-80
2022/10/14 03:13:58;;;;;;;35.17;17.10;;;;;;;10.30;100.00;98467.94;2622745;28;20052;-80
2022/10/14 03:15:13;;;;;;;32.67;16.13;;;;;;;10.15;100.00;98470.97;2621583;28;20066;-80
2022/10/14 03:16:29;;;;;;;31.45;15.10;;;;;;;9.99;100.00;98470.50;2621309;28;20084;-79
2022/10/14 03:17:44;;;;;;;36.10;16.40;;;;;;;10.12;100.00;98474.50;2612885;28;20040;-79
2022/10/14 03:19:00;;;;;;;38.17;17.33;;;;;;;10.34;100.00;98476.56;2615097;28;20048;-79
2022/10/14 03:20:15;;;;;;;32.75;15.77;;;;;;;10.18;100.00;98476.13;2620983;28;20052;-79
2022/10/14 03:21:31;;;;;;;31.95;15.73;;;;;;;10.20;100.00;98474.34;2622208;28;20059;-79
2022/10/14 03:22:46;;;;;;;30.50;15.93;;;;;;;10.41;100.00;98474.69;2622093;28;20056;-79
2022/10/14 03:24:03;;;;;;;32.35;16.50;;;;;;;10.43;100.00;98470.28;2621794;28;20529;-79
2022/10/14 03:25:18;;;;;;;26.77;14.85;;;;;;;10.26;100.00;98468.94;2623915;28;20135;-79
2022/10/14 03:26:34;;;;;;;30.83;14.98;;;;;;;10.20;100.00;98474.34;2623829;28;20135;-83
2022/10/14 03:27:49;;;;;;;31.55;16.00;;;;;;;10.17;100.00;98470.03;2621307;28;20040;-79
2022/10/14 03:29:05;;;;;;;33.10;16.50;;;;;;;10.24;100.00;98477.72;2621551;28;20623;-79
2022/10/14 03:30:21;;;;;;;33.20;16.38;;;;;;;10.40;100.00;98465.09;2623383;28;20055;-79
2022/10/14 03:31:36;;;;;;;28.77;14.85;;;;;;;10.46;100.00;98467.56;2625874;28;20043;-79
2022/10/14 03:32:52;;;;;;;32.63;15.57;;;;;;;10.49;100.00;98475.34;2621516;28;20075;-79
2022/10/14 03:34:08;;;;;;;31.80;15.73;;;;;;;10.44;100.00;98471.97;2621943;28;20052;-79
2022/10/14 03:35:23;;;;;;;32.33;15.15;;;;;;;10.16;100.00;98478.78;2622608;28;20049;-80
2022/10/14 03:36:39;;;;;;;31.70;14.73;;;;;;;10.14;100.00;98479.72;2622198;28;20076;-79
2022/10/14 03:37:54;;;;;;;29.15;15.60;;;;;;;10.14;100.00;98467.50;2624433;28;20048;-79
2022/10/14 03:39:10;;;;;;;29.17;14.93;;;;;;;10.24;100.00;98480.31;2621428;28;20059;-79
2022/10/14 03:40:26;;;;;;;29.85;15.55;;;;;;;10.10;100.00;98478.09;2623327;28;20695;-79
2022/10/14 03:41:41;;;;;;;29.70;15.15;;;;;;;10.28;100.00;98474.13;2621777;28;20055;-79
2022/10/14 03:42:59;;;;;;;26.70;14.73;;;;;;;10.41;100.00;98469.47;2621502;28;20044;-79
2022/10/14 03:44:15;;;;;;;29.88;15.75;;;;;;;10.14;100.00;98477.09;2621933;28;20410;-79
2022/10/14 03:45:31;;;;;;;28.05;15.80;;;;;;;10.40;100.00;98462.47;2620817;28;20047;-79
2022/10/14 03:46:47;;;;;;;26.77;14.90;;;;;;;10.50;100.00;98471.84;2621005;28;20048;-79
2022/10/14 03:48:02;;;;;;;32.67;16.50;;;;;;;10.28;100.00;98474.13;2622529;28;20052;-80
2022/10/14 03:49:18;;;;;;;31.30;16.10;;;;;;;10.40;100.00;98459.84;2625445;28;20052;-81
2022/10/14 03:50:33;;;;;;;32.08;15.88;;;;;;;10.28;100.00;98461.91;2624691;28;20053;-79
2022/10/14 03:51:49;;;;;;;30.15;16.95;;;;;;;10.23;100.00;98465.53;2627173;28;21024;-79
2022/10/14 03:53:04;;;;;;;30.08;16.02;;;;;;;10.28;100.00;98459.28;2625957;28;20048;-79
2022/10/14 03:54:20;;;;;;;31.98;16.17;;;;;;;10.40;100.00;98459.84;2623389;28;20052;-79
2022/10/14 03:55:36;;;;;;;28.55;16.50;;;;;;;10.45;100.00;98458.00;2624085;28;20047;-79
2022/10/14 03:56:51;;;;;;;28.52;15.32;;;;;;;10.36;100.00;98469.53;2624424;28;20094;-79
2022/10/14 03:58:09;;;;;;;28.98;15.60;;;;;;;10.34;100.00;98454.78;2622948;28;20137;-79
2022/10/14 03:59:25;;;;;;;29.63;15.63;;;;;;;10.43;100.00;98459.81;2626973;28;20052;-79
2022/10/14 04:00:41;;;;;;;24.98;14.20;;;;;;;10.43;100.00;98457.19;2623284;28;20043;-78
2022/10/14 04:01:56;;;;;;;27.77;15.10;;;;;;;10.45;100.00;98452.75;2624217;28;20048;-79
2022/10/14 04:03:12;;;;;;;29.00;15.52;;;;;;;10.50;100.00;98455.25;2624321;28;20909;-79
2022/10/14 04:04:28;;;;;;;29.30;15.00;;;;;;;10.48;100.00;98452.69;2626469;28;20063;-79
2022/10/14 04:05:43;;;;;;;28.45;14.93;;;;;;;10.48;100.00;98457.06;2623034;28;20101;-79
2022/10/14 04:06:59;;;;;;;28.15;14.73;;;;;;;10.48;100.00;98452.69;2623253;28;20060;-79
2022/10/14 04:08:14;;;;;;;27.42;14.35;;;;;;;10.49;100.00;98459.66;2627036;28;20547;-79
2022/10/14 04:09:30;;;;;;;29.55;14.65;;;;;;;10.20;100.00;98452.53;2624601;28;20052;-79
2022/10/14 04:10:51;;;;;;;26.83;14.27;;;;;;;10.03;100.00;98456.44;2622993;28;20111;-79
2022/10/14 04:12:06;;;;;;;25.98;14.00;;;;;;;10.12;100.00;98457.97;2625026;28;20548;-79
2022/10/14 04:13:22;;;;;;;25.63;13.73;;;;;;;10.10;100.00;98446.69;2622729;28;20489;-79
2022/10/14 04:14:38;;;;;;;29.10;13.85;;;;;;;10.19;100.00;98446.44;2624583;28;20051;-79
2022/10/14 04:15:53;;;;;;;26.75;13.98;;;;;;;10.32;100.00;98444.38;2626148;28;20052;-79
2022/10/14 04:17:09;;;;;;;27.17;13.88;;;;;;;10.29;100.00;98442.69;2624758;28;20124;-79
2022/10/14 04:18:24;;;;;;;28.17;13.55;;;;;;;10.25;100.00;98437.56;2623448;28;20044;-80
2022/10/14 04:19:40;;;;;;;26.08;15.05;;;;;;;10.36;100.00;98440.75;2624317;28;20635;-79
2022/10/14 04:20:59;;;;;;;28.67;14.75;;;;;;;10.22;100.00;98433.28;2627021;28;20052;-79
2022/10/14 04:22:15;;;;;;;28.95;14.80;;;;;;;10.41;100.00;98438.06;2623217;28;20082;-78
2022/10/14 04:23:31;;;;;;;28.52;15.82;;;;;;;10.41;100.00;98435.44;2626580;28;20049;-79
2022/10/14 04:24:47;;;;;;;27.17;13.73;;;;;;;10.37;100.00;98433.78;2624517;28;20086;-79
2022/10/14 04:26:07;;;;;;;26.63;15.00;;;;;;;9.88;100.00;98439.38;2623600;28;20059;-80
2022/10/14 04:27:22;;;;;;;30.10;15.13;;;;;;;9.97;100.00;98430.44;2622577;28;20470;-80
2022/10/14 04:28:38;;;;;;;31.10;15.13;;;;;;;10.13;100.00;98430.91;2624743;28;20095;-79
2022/10/14 04:29:54;;;;;;;27.45;15.05;;;;;;;10.25;100.00;98434.94;2625206;28;20061;-79
2022/10/14 04:31:09;;;;;;;30.80;15.82;;;;;;;10.20;100.00;98429.84;2625412;28;20036;-78
2022/10/14 04:32:25;;;;;;;29.50;15.35;;;;;;;10.18;100.00;98431.63;2626240;28;20475;-79
2022/10/14 04:33:40;;;;;;;30.45;15.65;;;;;;;10.12;100.00;98431.81;2626258;28;20211;-79
2022/10/14 04:34:56;;;;;;;25.38;14.60;;;;;;;10.29;100.00;98436.59;2626163;28;20051;-79
2022/10/14 04:36:11;;;;;;;27.85;15.38;;;;;;;10.38;100.00;98432.88;2624897;28;20055;-78
2022/10/14 04:37:28;;;;;;;26.70;15.38;;;;;;;10.44;100.00;98424.88;2625664;28;20040;-79
2022/10/14 04:38:44;;;;;;;23.38;13.48;;;;;;;10.41;100.00;98422.34;2627638;28;20048;-79
2022/10/14 04:39:59;;;;;;;26.60;14.80;;;;;;;10.29;100.00;98428.75;2627778;28;20043;-82
2022/10/14 04:41:15;;;;;;;25.25;14.50;;;;;;;10.36;100.00;98432.06;2627357;28;20048;-79
2022/10/14 04:42:30;;;;;;;26.23;13.75;;;;;;;10.38;100.00;98422.41;2627246;28;20055;-80
2022/10/14 04:43:46;;;;;;;27.73;15.70;;;;;;;10.36;100.00;98426.81;2626588;28;20052;-79
2022/10/14 04:45:02;;;;;;;27.15;14.27;;;;;;;10.42;100.00;98417.09;2626950;28;20059;-80
2022/10/14 04:46:18;;;;;;;24.17;14.55;;;;;;;10.40;100.00;98426.69;2624635;28;20047;-80
2022/10/14 04:47:33;;;;;;;21.05;13.25;;;;;;;10.34;100.00;98421.63;2626137;28;20810;-79
2022/10/14 04:48:49;;;;;;;23.30;13.85;;;;;;;10.27;100.00;98422.72;2622731;28;20055;-79
2022/10/14 04:50:05;;;;;;;25.35;13.32;;;;;;;10.29;100.00;98424.34;2627458;28;20082;-78
2022/10/14 04:51:21;;;;;;;22.45;13.23;;;;;;;10.25;100.00;98425.34;2622143;28;20076;-79
2022/10/14 04:52:36;;;;;;;25.42;13.48;;;;;;;10.25;100.00;98424.47;2625853;28;20044;-79
2022/10/14 04:53:52;;;;;;;23.15;13.60;;;;;;;10.21;100.00;98428.09;2626168;28;20052;-78
2022/10/14 04:55:08;;;;;;;26.77;14.18;;;;;;;10.24;100.00;98426.25;2628008;28;20478;-79
2022/10/14 04:56:23;;;;;;;24.23;13.57;;;;;;;10.27;100.00;98425.31;2626824;28;20060;-78
2022/10/14 04:57:41;;;;;;;23.65;12.48;;;;;;;10.26;100.00;98424.44;2626827;28;20509;-82
2022/10/14 04:58:57;;;;;;;21.80;12.48;;;;;;;10.25;100.00;98427.97;2625714;28;20055;-80
2022/10/14 05:00:14;;;;;;;23.17;13.15;;;;;;;10.28;100.00;98435.72;2628191;28;20048;-79
2022/10/14 05:01:29;;;;;;;24.40;13.43;;;;;;;10.26;100.00;98427.06;2622917;28;20105;-79
2022/10/14 05:02:45;;;;;;;24.45;13.48;;;;;;;10.27;100.00;98428.78;2623664;28;20048;-79
2022/10/14 05:04:00;;;;;;;22.98;12.75;;;;;;;10.20;100.00;98424.63;2622579;28;20048;-78
2022/10/14 05:05:16;;;;;;;24.63;13.20;;;;;;;10.14;100.00;98425.66;2624337;28;20055;-79
2022/10/14 05:06:32;;;;;;;23.38;13.85;;;;;;;10.15;100.00;98424.75;2624678;28;20040;-79
2022/10/14 05:07:47;;;;;;;26.35;13.70;;;;;;;10.14;100.00;98430.88;2624927;28;20051;-79
2022/10/14 05:09:04;;;;;;;23.48;11.82;;;;;;;10.13;100.00;98423.06;2624985;28;20052;-80
2022/10/14 05:10:20;;;;;;;24.75;13.25;;;;;;;10.10;100.00;98420.53;2623830;28;20482;-78
2022/10/14 05:11:36;;;;;;;25.10;12.77;;;;;;;10.12;100.00;98429.19;2622918;28;20056;-79
2022/10/14 05:12:51;;;;;;;21.52;12.48;;;;;;;10.14;100.00;98423.03;2626254;28;20215;-78
2022/10/14 05:14:07;;;;;;;21.55;12.30;;;;;;;10.17;100.00;98419.44;2623695;28;20213;-78
2022/10/14 05:15:23;;;;;;;26.05;12.52;;;;;;;10.20;100.00;98422.00;2621751;28;20048;-79
2022/10/14 05:16:38;;;;;;;27.50;14.27;;;;;;;10.00;100.00;98426.00;2621564;28;20050;-80
2022/10/14 05:17:54;;;;;;;24.00;12.90;;;;;;;10.04;100.00;98422.38;2624393;28;20620;-80
2022/10/14 05:19:09;;;;;;;25.00;13.27;;;;;;;10.07;100.00;98423.25;2627532;28;20056;-78
2022/10/14 05:20:25;;;;;;;21.88;13.07;;;;;;;10.07;100.00;98425.84;2622389;28;20044;-79
2022/10/14 05:21:41;;;;;;;23.52;13.10;;;;;;;10.02;100.00;98418.97;2622316;28;20089;-79
2022/10/14 05:22:56;;;;;;;24.48;14.02;;;;;;;9.97;100.00;98415.63;2621721;28;20059;-79
2022/10/14 05:24:12;;;;;;;25.67;13.30;;;;;;;10.00;100.00;98419.91;2622692;28;20056;-79
2022/10/14 05:25:28;;;;;;;26.48;13.68;;;;;;;9.93;100.00;98423.56;2622732;28;20044;-79
2022/10/14 05:26:43;;;;;;;24.95;14.15;;;;;;;9.95;100.00;98421.78;2624076;28;20052;-78
2022/10/14 05:27:59;;;;;;;21.90;13.63;;;;;;;9.92;100.00;98425.34;2623628;28;20049;-79
2022/10/14 05:29:14;;;;;;;26.48;13.93;;;;;;;9.99;100.00;98423.44;2624292;28;20043;-78
2022/10/14 05:30:30;;;;;;;24.85;13.90;;;;;;;10.07;100.00;98410.16;2622526;28;20044;-85
2022/10/14 05:31:46;;;;;;;24.95;13.93;;;;;;;10.08;100.00;98414.50;2623116;28;20057;-79
2022/10/14 05:33:01;;;;;;;25.88;13.48;;;;;;;10.04;100.00;98417.16;2623473;28;20502;-79
2022/10/14 05:34:17;;;;;;;22.55;12.45;;;;;;;10.07;100.00;98411.00;2615244;28;20045;-78
2022/10/14 05:35:32;;;;;;;24.90;13.93;;;;;;;10.13;100.00;98415.22;2618088;28;20101;-79
2022/10/14 05:36:53;;;;;;;22.95;12.98;;;;;;;10.16;100.00;98412.50;2615360;28;20051;-79
2022/10/14 05:38:12;;;;;;;23.48;12.85;;;;;;;10.14;100.00;98414.31;2619564;28;20044;-79
2022/10/14 05:39:28;;;;;;;23.92;13.25;;;;;;;9.90;100.00;98419.28;2624047;28;20475;-78
2022/10/14 05:40:51;;;;;;;23.38;11.93;;;;;;;9.80;100.00;98418.66;2622666;28;20147;-78
2022/10/14 05:42:06;;;;;;;24.13;13.00;;;;;;;10.01;100.00;98419.88;2621452;28;20045;-81
2022/10/14 05:43:25;;;;;;;22.88;12.48;;;;;;;9.92;100.00;98420.13;2621020;28;20051;-77
2022/10/14 05:44:41;;;;;;;22.30;13.20;;;;;;;9.93;100.00;98421.84;2623854;28;20048;-79
2022/10/14 05:45:57;;;;;;;22.15;12.95;;;;;;;10.04;100.00;98419.78;2621684;28;20135;-79
2022/10/14 05:47:13;;;;;;;24.00;12.80;;;;;;;10.16;100.00;98418.63;2621626;28;20102;-78
2022/10/14 05:48:30;;;;;;;24.45;13.13;;;;;;;10.17;100.00;98411.59;2624772;28;20097;-77
2022/10/14 05:49:45;;;;;;;24.75;11.95;;;;;;;9.73;100.00;98424.94;2626126;28;20052;-80
2022/10/14 05:51:02;;;;;;;25.73;13.75;;;;;;;9.86;100.00;98425.50;2621812;28;20098;-77
2022/10/14 05:52:17;;;;;;;24.58;13.05;;;;;;;9.97;100.00;98426.06;2623554;28;20074;-78
2022/10/14 05:53:33;;;;;;;23.02;12.68;;;;;;;10.10;100.00;98426.59;2621924;28;20049;-78
2022/10/14 05:54:48;;;;;;;25.02;12.90;;;;;;;10.22;100.00;98420.22;2616171;28;20474;-77
2022/10/14 05:56:07;;;;;;;23.98;12.93;;;;;;;10.11;100.00;98427.47;2620199;28;20167;-78
2022/10/14 05:57:23;;;;;;;23.58;12.23;;;;;;;10.24;100.00;98422.75;2623904;28;20620;-78